Friday, July 25, 2014
09:04 UTC
  |  Log In   |  Register Free
Airport Search:

Hobart Regional Airport
(KHBR)

Hobart Regional Airport Diagram
No Airport Diagram Available

FAA data valid effective July 24, 2014 until September 18, 2014 (unless otherwise noted).

 
 
 
 
 
 
 
 
 
 
 
 
 
 

Current Aviation Weather for Hobart Regional Airport (KHBR)

The most recent METAR observation for KHBR was updated at: 0753 UTC
METAR Summary (Translated METAR)
KHBR
250753Z AUTO 19011KT 10SM CLR 25/19 A3001 RMK AO2 SLP138 T02500194 $
KLTS
(23.1 nm SW from KHBR)
250758Z AUTO 16006KT 10SM CLR 24/21 A3000 RMK AO2 SLP141 T02420206 $
TAF Summary (Translated TAF)
KHBR
250520Z 2506/2606 17011KT P6SM FEW250 FM251400 21016G24KT P6SM SCT250 FM260100 18013KT P6SM FEW250
KLTS
(23.1 nm SW from KHBR)
2501/2607 15008KT 9999 SKC QNH2994INS BECMG 2514/2515 18010G15KT 9999 SKC QNH2986INS BECMG 2600/2601 18006KT 9999 FEW055 QNH2988INS TX39/2521Z TN22/2512Z
  Airport Weather Conditions for KHBR

 Current Weather at HBR
77° F
Fair
South winds at 12.7 mph
HBR NOAA Radar

Pressure: 30.01 in
Humidity: 71%
Wind: South at 12.7 MPH (11 KT)
Dew Point: 66.9°F
Visibility: 10.00 mi


Airport Weather Forecast for KHBR

Translated METAR and TAF for KHBR
Translated METAR for KHBR (0858 UTC 25 July 2014)
found at http://aviationweather.gov/adds/metars/
 
METAR text: KHBR 250853Z AUTO 19010KT 10SM CLR 24/19 A3001 RMK AO2 SLP139 T02440189 56003 $
Conditions at: KHBR (HOBART , OK, US) observed 0853 UTC 25 July 2014
Temperature: 24.4°C (76°F)
Dewpoint: 18.9°C (66°F) [RH = 71%]
Pressure (altimeter): 30.01 inches Hg (1016.3 mb)
[Sea-level pressure: 1013.9 mb]
Winds: from the S (190 degrees) at 12 MPH (10 knots; 5.2 m/s)
Visibility: 10 or more miles (16+ km)
Ceiling: at least 12,000 feet AGL
Clouds: sky clear below 12,000 feet AGL
Weather:
SOME DATA ABOVE MAY BE INACCURATE!!!
"$" is an indication the sensor requires maintenance
Translated TAF for KHBR
Forecast for: KHBR (HOBART , OK, US)
TAF Text: KHBR 250520Z 2506/2606 17011KT P6SM FEW250
Forecast period: 0600 to 1400 UTC 25 July 2014
Forecast type: FROM: standard forecast or significant change
Winds: from the S (170 degrees) at 13 MPH (11 knots; 5.7 m/s)
Visibility: 6 or more miles (10+ km)
Clouds: few clouds at 25000 feet AGL
Weather: no significant weather forecast for this period
TAF Text: FM251400 21016G24KT P6SM SCT250
Forecast period: 1400 UTC 25 July 2014 to 0100 UTC 26 July 2014
Forecast type: FROM: standard forecast or significant change
Winds: from the SSW (210 degrees) at 18 MPH (16 knots; 8.3 m/s)
gusting to 28 MPH (24 knots; 12.5 m/s)
Visibility: 6 or more miles (10+ km)
Clouds: scattered clouds at 25000 feet AGL
Weather: no significant weather forecast for this period
TAF Text: FM260100 18013KT P6SM FEW250
Forecast period: 0100 to 0600 UTC 26 July 2014
Forecast type: FROM: standard forecast or significant change
Winds: from the S (180 degrees) at 15 MPH (13 knots; 6.8 m/s)
Visibility: 6 or more miles (10+ km)
Clouds: few clouds at 25000 feet AGL
Weather: no significant weather forecast for this period

Find All Airport Services Find A Hotel Find A Rental Car Find A Golf Course Find A Restaurant $100 Hamburger



FBO's on the Field
FBO Company Facility Photos Services Transportation Aviation Fuel Prices: Prices include tax
Catering Weather Repair Courtesy Rental Type 100LL JetA JetA+ MOGAS 8087
 
City of Hobart

Currently rated 2.8 by 1 person
FS:Phillips66
Last Updated: Jul-21
Login to update fuel prices
SS:
Contact City of HobartMore FBO Information
 
Add another FBO Facility Photos Catering Weather Repair Courtesy Rental Type 100LL JetA JetA+ MOGAS 8087
Services Transportation Aviation Fuel Prices: Prices include tax


GlobalAir.com Airport Resource Center model-print
model-print
model-print
model-print